This is the latest recevied weather packets stored in our database for station/object K3PPP. If no packets are shown the sender has not sent any weather packets the latest 10 day(s).
| Time | Temp. | Humidity | Pressure | Rain* | Wind** | Luminosity | Snow |
|---|---|---|---|---|---|---|---|
| 1778192565 | 11.67° C | 47% | 1010.3 hPa | 0 mm | - | 85 W/m² | - |
| 1778192262 | 11.67° C | 47% | 1010.3 hPa | 0 mm | - | 115 W/m² | - |
| 1778191958 | 11.67° C | 48% | 1010.6 hPa | 0 mm | - | 142 W/m² | - |
| 1778191655 | 11.67° C | 49% | 1010.3 hPa | 0 mm | - | 98 W/m² | - |
| 1778191354 | 11.67° C | 48% | 1010.2 hPa | 0 mm | - | 89 W/m² | - |
| 1778191049 | 11.67° C | 48% | 1010.2 hPa | 0 mm | - | 97 W/m² | - |
| 1778190747 | 11.67° C | 47% | 1010 hPa | 0 mm | - | 117 W/m² | - |
| 1778190444 | 12.22° C | 46% | 1010.1 hPa | 0 mm | - | 116 W/m² | - |
| 1778190141 | 11.67° C | 46% | 1010.1 hPa | 0 mm | - | 167 W/m² | - |
| 1778189836 | 12.22° C | 46% | 1010.1 hPa | 0 mm | - | 134 W/m² | - |
| 1778189534 | 12.78° C | 47% | 1010.1 hPa | 0 mm | - | 158 W/m² | - |
| 1778189230 | 12.78° C | 48% | 1009.9 hPa | 0 mm | - | 162 W/m² | - |
| 1778188927 | 12.78° C | 47% | 1010.1 hPa | 0 mm | - | 192 W/m² | - |
| 1778188623 | 12.78° C | 48% | 1010.1 hPa | 0 mm | - | 457 W/m² | - |
| 1778188319 | 12.22° C | 49% | 1010.1 hPa | 0 mm | - | 538 W/m² | - |
| 1778188016 | 12.22° C | 49% | 1010 hPa | 0 mm | - | 139 W/m² | - |
| 1778187713 | 12.78° C | 49% | 1010 hPa | 0 mm | - | 348 W/m² | - |
| 1778187409 | 12.22° C | 51% | 1010 hPa | 0 mm | - | 145 W/m² | - |
| 1778187106 | 12.22° C | 51% | 1009.7 hPa | 0 mm | - | 131 W/m² | - |
| 1778186802 | 12.78° C | 48% | 1009.8 hPa | 0 mm | - | 146 W/m² | - |
| 1778186500 | 12.78° C | 48% | 1010 hPa | 0 mm | - | 189 W/m² | - |
| 1778186198 | 12.22° C | 49% | 1010.1 hPa | 0 mm | - | 624 W/m² | - |
| 1778185895 | 12.22° C | 49% | 1009.9 hPa | 0 mm | - | 192 W/m² | - |
| 1778185591 | 13.33° C | 47% | 1010.1 hPa | 0 mm | - | 184 W/m² | - |
| 1778185287 | 13.33° C | 48% | 1010 hPa | 0 mm | - | 663 W/m² | - |
* Rain latest hour (hover to see other rain measurements)
** Current wind speed in m/s (hover to see current wind gust speed)